Dades meteomassalio
Diari Summary for Octubre 16, 2017 Units:  English    Metric   Both
« Previous Day
Next Day »
Diari Semanal Mensual Anual Personalitzat
  Maxima: Minima: Mijana:
Temperatura: TemperatureC °F 6.7 °F 14.7 °F
Rosada: DewpointC °F 4.4 °F 9 °F
Humitat: Humidity % 40 % 71 %
Velocitat del vent: WindSpeedKMH mph 0.0 mph 3.9 mph
Racha vent: WindSpeedGustKMH mph - -
Vent:- - SE
Pressio: PressurehPa in 1024.9 in -
Pluja: 0.0 in    
Historical Graphs
 
 
Tabular Data for Octubre 16, 2017
Time Temperature Dew Point Pressure Wind Wind Speed Wind Gust Humidity Rainfall Rate (Hourly) solar Conditions
TemperatureC °F DewpointC °F PressurehPa in Calm     Humidity % HourlyPrecipMM in SolarRadiationWatts/m^2 W/m2 Conditions
00:02 11.7 °F 8.5 °F 1028.0 in Calm     81 % 0.0 in 0.0 W/m2 RA
00:07 11.7 °F 8.7 °F 1028.0 in Calm     82 % 0.0 in 0.0 W/m2 CLR
00:12 11.7 °F 8.9 °F 1028.0 in Calm     83 % 0.0 in 0.0 W/m2 CLR
00:17 11.7 °F 8.9 °F 1028.0 in Calm     83 % 0.0 in 0.0 W/m2 CLR
00:18 11.7 °F 9.1 °F 1028.0 in Calm     84 % 0.0 in 0.0 W/m2 CLR
00:23 11.7 °F 8.9 °F 1028.0 in Calm     83 % 0.0 in 0.0 W/m2 CLR
00:28 11.1 °F 8.5 °F 1028.0 in Calm     84 % 0.0 in 0.0 W/m2 CLR
00:33 11.1 °F 8.7 °F 1028.0 in Calm     85 % 0.0 in 0.0 W/m2 CLR
00:38 11.1 °F 8.7 °F 1028.0 in Calm     85 % 0.0 in 0.0 W/m2 CLR
00:43 11.1 °F 8.8 °F 1028.0 in Calm     86 % 0.0 in 0.0 W/m2 CLR
00:48 11.1 °F 9.1 °F 1028.0 in Calm     87 % 0.0 in 0.0 W/m2 CLR
00:53 11.1 °F 9.1 °F 1028.0 in Calm     87 % 0.0 in 0.0 W/m2 CLR
00:58 10.6 °F 8.5 °F 1028.0 in Calm     87 % 0.0 in 0.0 W/m2 CLR
01:03 10.6 °F 8.5 °F 1028.0 in Calm     87 % 0.0 in 0.0 W/m2 CLR
01:04 10.6 °F 8.3 °F 1028.0 in Calm     86 % 0.0 in 0.0 W/m2 CLR
01:09 10.6 °F 8.5 °F 1028.0 in Calm     87 % 0.0 in 0.0 W/m2 CLR
01:14 10.6 °F 8.5 °F 1028.0 in Calm     87 % 0.0 in 0.0 W/m2 CLR
01:19 10.0 °F 7.9 °F 1027.7 in Calm     87 % 0.0 in 0.0 W/m2 CLR
01:24 10.0 °F 7.8 °F 1027.7 in Calm     86 % 0.0 in 0.0 W/m2 CLR
01:29 10.0 °F 7.9 °F 1027.7 in Calm     87 % 0.0 in 0.0 W/m2 CLR
01:34 9.4 °F 7.6 °F 1027.7 in Calm     88 % 0.0 in 0.0 W/m2 CLR
01:39 9.4 °F 7.7 °F 1027.7 in Calm     89 % 0.0 in 0.0 W/m2 CLR
01:44 10.0 °F 8.4 °F 1027.7 in Calm     90 % 0.0 in 0.0 W/m2 CLR
01:49 10.6 °F 8.7 °F 1027.7 in Calm     88 % 0.0 in 0.0 W/m2 CLR
01:54 10.6 °F 8.5 °F 1027.7 in Calm     87 % 0.0 in 0.0 W/m2 CLR
01:59 10.0 °F 7.9 °F 1027.7 in Calm     87 % 0.0 in 0.0 W/m2 CLR
02:04 10.0 °F 7.9 °F 1027.7 in Calm     87 % 0.0 in 0.0 W/m2 CLR
02:09 10.0 °F 7.9 °F 1027.7 in Calm     87 % 0.0 in 0.0 W/m2 CLR
02:14 10.0 °F 7.9 °F 1027.7 in Calm     87 % 0.0 in 0.0 W/m2 CLR
02:19 9.4 °F 7.4 °F 1027.7 in Calm     87 % 0.0 in 0.0 W/m2 CLR
02:24 9.4 °F 7.2 °F 1027.3 in Calm     86 % 0.0 in 0.0 W/m2 CLR
02:30 9.4 °F 7.4 °F 1027.7 in Calm     87 % 0.0 in 0.0 W/m2 CLR
02:35 9.4 °F 7.6 °F 1027.3 in Calm     88 % 0.0 in 0.0 W/m2 CLR
02:40 10.0 °F 8.1 °F 1027.7 in Calm     88 % 0.0 in 0.0 W/m2 CLR
02:45 9.4 °F 7.6 °F 1027.7 in Calm     88 % 0.0 in 0.0 W/m2 CLR
02:50 9.4 °F 7.4 °F 1027.7 in Calm     87 % 0.0 in 0.0 W/m2 CLR
02:55 10.0 °F 7.9 °F 1027.7 in Calm     87 % 0.0 in 0.0 W/m2 CLR
03:00 10.0 °F 7.9 °F 1027.7 in Calm     87 % 0.0 in 0.0 W/m2 CLR
03:05 10.6 °F 8.7 °F 1027.3 in Calm     88 % 0.0 in 0.0 W/m2 CLR
03:10 10.0 °F 8.1 °F 1027.3 in Calm     88 % 0.0 in 0.0 W/m2 CLR
03:15 10.0 °F 8.1 °F 1027.3 in Calm     88 % 0.0 in 0.0 W/m2 CLR
03:20 10.0 °F 8.1 °F 1027.3 in Calm     88 % 0.0 in 0.0 W/m2 CLR
03:25 10.0 °F 8.3 °F 1027.3 in Calm     89 % 0.0 in 0.0 W/m2 CLR
03:30 10.0 °F 8.1 °F 1027.3 in Calm     88 % 0.0 in 0.0 W/m2 CLR
03:35 9.4 °F 7.7 °F 1027.3 in Calm     89 % 0.0 in 0.0 W/m2 CLR
03:40 9.4 °F 7.7 °F 1027.3 in Calm     89 % 0.0 in 0.0 W/m2 CLR
03:45 8.9 °F 7.2 °F 1027.3 in Calm     89 % 0.0 in 0.0 W/m2 CLR
03:50 8.9 °F 7.2 °F 1027.3 in Calm     89 % 0.0 in 0.0 W/m2 CLR
03:55 8.9 °F 7.2 °F 1027.3 in Calm     89 % 0.0 in 0.0 W/m2 CLR
04:00 8.9 °F 7.0 °F 1027.3 in Calm     88 % 0.0 in 0.0 W/m2 CLR
04:05 8.9 °F 7.0 °F 1027.3 in Calm     88 % 0.0 in 0.0 W/m2 CLR
04:10 8.9 °F 7.0 °F 1027.3 in Calm     88 % 0.0 in 0.0 W/m2 CLR
04:15 8.9 °F 7.2 °F 1027.3 in Calm     89 % 0.0 in 0.0 W/m2 CLR
04:20 8.9 °F 7.2 °F 1027.3 in Calm     89 % 0.0 in 0.0 W/m2 CLR
04:25 8.9 °F 7.2 °F 1027.3 in Calm     89 % 0.0 in 0.0 W/m2 CLR
04:30 8.9 °F 7.2 °F 1027.3 in Calm     89 % 0.0 in 0.0 W/m2 CLR
04:35 8.9 °F 7.2 °F 1027.0 in Calm     89 % 0.0 in 0.0 W/m2 CLR
04:40 8.9 °F 7.3 °F 1027.0 in Calm     90 % 0.0 in 0.0 W/m2 CLR
04:45 8.9 °F 7.2 °F 1027.0 in Calm     89 % 0.0 in 0.0 W/m2 CLR
04:50 8.9 °F 7.3 °F 1027.0 in Calm     90 % 0.0 in 0.0 W/m2 CLR
04:55 8.3 °F 6.8 °F 1027.3 in Calm     90 % 0.0 in 0.0 W/m2 CLR
05:00 8.3 °F 6.6 °F 1027.0 in Calm     89 % 0.0 in 0.0 W/m2 CLR
05:05 8.3 °F 6.8 °F 1027.0 in Calm     90 % 0.0 in 0.0 W/m2 CLR
05:10 8.3 °F 6.8 °F 1027.0 in Calm     90 % 0.0 in 0.0 W/m2 CLR
05:15 7.8 °F 6.2 °F 1027.3 in Calm     90 % 0.0 in 0.0 W/m2 CLR
05:20 7.8 °F 6.2 °F 1027.0 in Calm     90 % 0.0 in 0.0 W/m2 CLR
05:25 8.3 °F 6.8 °F 1027.0 in Calm     90 % 0.0 in 0.0 W/m2 CLR
05:30 8.3 °F 6.8 °F 1027.0 in Calm     90 % 0.0 in 0.0 W/m2 CLR
05:35 8.3 °F 6.8 °F 1027.0 in Calm     90 % 0.0 in 0.0 W/m2 CLR
05:40 8.3 °F 6.8 °F 1027.0 in Calm     90 % 0.0 in 0.0 W/m2 CLR
05:45 8.3 °F 6.8 °F 1027.0 in Calm     90 % 0.0 in 0.0 W/m2 CLR
05:50 7.8 °F 6.2 °F 1027.0 in Calm     90 % 0.0 in 0.0 W/m2 CLR
05:55 7.8 °F 6.2 °F 1027.0 in Calm     90 % 0.0 in 0.0 W/m2 CLR
06:00 8.3 °F 6.8 °F 1027.0 in Calm     90 % 0.0 in 0.0 W/m2 CLR
06:05 7.8 °F 6.2 °F 1027.0 in Calm     90 % 0.0 in 0.0 W/m2 CLR
06:10 7.8 °F 6.2 °F 1027.0 in Calm     90 % 0.0 in 0.0 W/m2 CLR
06:15 7.8 °F 6.2 °F 1027.0 in Calm     90 % 0.0 in 0.0 W/m2 CLR
06:21 7.8 °F 6.4 °F 1027.3 in Calm     91 % 0.0 in 0.0 W/m2 CLR
06:22 7.8 °F 6.4 °F 1027.0 in Calm     91 % 0.0 in 0.0 W/m2 CLR
06:27 7.8 °F 6.2 °F 1027.3 in Calm     90 % 0.0 in 0.0 W/m2 CLR
06:32 7.8 °F 6.2 °F 1027.0 in Calm     90 % 0.0 in 0.0 W/m2 CLR
06:37 8.3 °F 6.9 °F 1027.0 in Calm     91 % 0.0 in 0.0 W/m2 CLR
06:42 8.3 °F 6.9 °F 1027.3 in Calm     91 % 0.0 in 0.0 W/m2 CLR
06:47 7.8 °F 6.2 °F 1027.3 in Calm     90 % 0.0 in 0.0 W/m2 CLR
06:52 7.8 °F 6.4 °F 1027.3 in Calm     91 % 0.0 in 0.0 W/m2 CLR
06:57 7.8 °F 6.4 °F 1027.3 in Calm     91 % 0.0 in 0.0 W/m2 CLR
07:02 7.8 °F 6.4 °F 1027.3 in Calm     91 % 0.0 in 0.0 W/m2 CLR
07:07 7.2 °F 5.8 °F 1027.3 in Calm     91 % 0.0 in 0.0 W/m2 CLR
07:12 7.2 °F 5.8 °F 1027.3 in Calm     91 % 0.0 in 0.0 W/m2 CLR
07:17 7.2 °F 5.8 °F 1027.3 in Calm     91 % 0.0 in 0.0 W/m2 CLR
07:22 7.2 °F 5.8 °F 1027.3 in Calm     91 % 0.0 in 0.0 W/m2 CLR
07:27 7.2 °F 5.8 °F 1027.7 in Calm     91 % 0.0 in 0.0 W/m2 CLR
07:32 7.2 °F 5.8 °F 1027.7 in Calm     91 % 0.0 in 0.0 W/m2 CLR
07:37 7.2 °F 5.8 °F 1027.7 in Calm     91 % 0.0 in 0.0 W/m2 CLR
07:42 7.2 °F 5.8 °F 1027.7 in Calm     91 % 0.0 in 0.0 W/m2 CLR
07:47 7.2 °F 5.8 °F 1027.7 in Calm     91 % 0.0 in 0.0 W/m2 CLR
07:52 7.2 °F 5.8 °F 1027.7 in Calm     91 % 0.0 in 0.0 W/m2 CLR
07:57 6.7 °F 5.3 °F 1027.7 in Calm     91 % 0.0 in 0.0 W/m2 CLR
08:02 6.7 °F 5.3 °F 1027.7 in Calm     91 % 0.0 in 0.0 W/m2 OVC
08:07 6.7 °F 5.3 °F 1027.7 in Calm     91 % 0.0 in 0.0 W/m2 OVC
08:12 6.7 °F 5.3 °F 1028.0 in Calm     91 % 0.0 in 5.0 W/m2 OVC
08:17 6.7 °F 5.3 °F 1028.0 in Calm     91 % 0.0 in 7.0 W/m2 BKN
08:22 6.7 °F 5.3 °F 1028.0 in Calm     91 % 0.0 in 11.0 W/m2 BKN
08:27 6.7 °F 5.3 °F 1028.0 in Calm     91 % 0.0 in 14.0 W/m2 BKN
08:32 6.7 °F 5.3 °F 1028.0 in Calm     91 % 0.0 in 16.0 W/m2 BKN
08:37 6.7 °F 5.3 °F 1028.0 in Calm     91 % 0.0 in 19.0 W/m2 BKN
08:42 7.2 °F 5.8 °F 1028.3 in ENE 1.9 mph   91 % 0.0 in 26.0 W/m2 BKN
08:47 7.2 °F 5.8 °F 1028.3 in Calm     91 % 0.0 in 33.0 W/m2 BKN
08:52 7.2 °F 5.8 °F 1028.3 in Calm     91 % 0.0 in 46.0 W/m2 SCT
08:57 7.2 °F 5.8 °F 1028.3 in Calm     91 % 0.0 in 53.0 W/m2 SCT
09:02 7.8 °F 6.4 °F 1028.3 in Calm     91 % 0.0 in 62.0 W/m2 SCT
09:07 7.8 °F 6.4 °F 1028.3 in Calm     91 % 0.0 in 79.0 W/m2 FEW
09:12 7.8 °F 6.4 °F 1028.7 in Calm     91 % 0.0 in 97.0 W/m2 CLR
09:17 7.8 °F 6.4 °F 1028.7 in Calm     91 % 0.0 in 113.0 W/m2 CLR
09:22 8.3 °F 6.8 °F 1028.7 in Calm     90 % 0.0 in 104.0 W/m2 CLR
09:23 8.3 °F 6.8 °F 1028.7 in Calm     90 % 0.0 in 116.0 W/m2 CLR
09:28 8.9 °F 7.3 °F 1029.0 in Calm     90 % 0.0 in 144.0 W/m2 CLR
09:33 8.9 °F 7.3 °F 1029.0 in Calm     90 % 0.0 in 111.0 W/m2 CLR
09:38 9.4 °F 7.7 °F 1029.0 in Calm     89 % 0.0 in 179.0 W/m2 CLR
09:43 9.4 °F 7.6 °F 1029.0 in Calm     88 % 0.0 in 195.0 W/m2 CLR
09:48 9.4 °F 7.2 °F 1029.0 in Calm     86 % 0.0 in 211.0 W/m2 CLR
09:53 9.4 °F 7.1 °F 1029.0 in Calm     85 % 0.0 in 230.0 W/m2 CLR
09:58 10.0 °F 7.4 °F 1029.0 in Calm     84 % 0.0 in 248.0 W/m2 CLR
10:03 11.1 °F 8.3 °F 1029.0 in Calm     83 % 0.0 in 262.0 W/m2 CLR
10:08 11.1 °F 8.2 °F 1029.0 in Calm     82 % 0.0 in 274.0 W/m2 CLR
10:13 11.7 °F 8.5 °F 1029.0 in Calm     81 % 0.0 in 290.0 W/m2 CLR
10:18 11.7 °F 8.5 °F 1029.0 in Calm     81 % 0.0 in 306.0 W/m2 CLR
10:23 11.7 °F 8.2 °F 1029.0 in Calm     79 % 0.0 in 320.0 W/m2 CLR
10:28 12.8 °F 9.1 °F 1029.3 in Calm     78 % 0.0 in 334.0 W/m2 CLR
10:33 13.3 °F 9.6 °F 1029.3 in Calm     78 % 0.0 in 346.0 W/m2 CLR
10:38 13.9 °F 9.9 °F 1029.3 in Calm     77 % 0.0 in 360.0 W/m2 CLR
10:43 13.9 °F 9.9 °F 1029.3 in Calm     77 % 0.0 in 371.0 W/m2 CLR
10:48 13.9 °F 9.7 °F 1029.3 in Calm     76 % 0.0 in 383.0 W/m2 CLR
10:53 13.9 °F 9.1 °F 1029.3 in Calm     73 % 0.0 in 399.0 W/m2 CLR
10:58 13.9 °F 8.9 °F 1029.3 in Calm     72 % 0.0 in 413.0 W/m2 CLR
11:03 14.4 °F 9.4 °F 1029.3 in Calm     72 % 0.0 in 427.0 W/m2 CLR
11:08 15.0 °F 10.0 °F 1029.0 in Calm     72 % 0.0 in 436.0 W/m2 CLR
11:13 15.6 °F 10.5 °F 1029.0 in NNW 5.6 mph 5.6 mph 72 % 0.0 in 446.0 W/m2 CLR
11:18 16.7 °F 10.9 °F 1029.0 in NNW 5.6 mph 5.6 mph 69 % 0.0 in 459.0 W/m2 CLR
11:19 16.7 °F 10.9 °F 1029.0 in NNW 5.6 mph 5.6 mph 69 % 0.0 in 459.0 W/m2 CLR
11:24 17.2 °F 11.3 °F 1029.0 in Calm     68 % 0.0 in 469.0 W/m2 CLR
11:29 17.8 °F 11.6 °F 1029.0 in NNW 1.6 mph   67 % 0.0 in 483.0 W/m2 CLR
11:34 18.3 °F 12.1 °F 1029.0 in Calm     67 % 0.0 in 492.0 W/m2 CLR
11:39 18.9 °F 12.2 °F 1029.0 in Calm     65 % 0.0 in 503.0 W/m2 CLR
11:44 18.9 °F 11.9 °F 1029.0 in Calm     64 % 0.0 in 512.0 W/m2 CLR
11:49 18.9 °F 11.4 °F 1029.0 in Calm     62 % 0.0 in 524.0 W/m2 CLR
11:54 19.4 °F 11.7 °F 1029.0 in Calm     61 % 0.0 in 531.0 W/m2 CLR
11:59 20.0 °F 12.5 °F 1029.0 in Calm     62 % 0.0 in 540.0 W/m2 CLR
12:04 20.0 °F 12.0 °F 1028.7 in Calm     60 % 0.0 in 548.0 W/m2 CLR
12:09 20.6 °F 12.5 °F 1028.7 in Calm     60 % 0.0 in 555.0 W/m2 CLR
12:14 20.6 °F 12.5 °F 1028.7 in NNW 1.6 mph   60 % 0.0 in 563.0 W/m2 CLR
12:19 21.1 °F 13.1 °F 1028.7 in Calm   0.5 mph 60 % 0.0 in 571.0 W/m2 CLR
12:24 21.1 °F 13.1 °F 1028.7 in NNW 7.4 mph 7.4 mph 60 % 0.0 in 577.0 W/m2 CLR
12:29 21.1 °F 13.1 °F 1028.7 in NNW 5.6 mph 5.6 mph 60 % 0.0 in 584.0 W/m2 CLR
12:34 21.1 °F 13.1 °F 1028.7 in NNW 5.6 mph 5.6 mph 60 % 0.0 in 591.0 W/m2 CLR
12:39 21.7 °F 13.3 °F 1028.3 in NNW 5.6 mph 5.6 mph 59 % 0.0 in 596.0 W/m2 CLR
12:44 21.7 °F 13.3 °F 1028.3 in NNW 8.0 mph 8.0 mph 59 % 0.0 in 601.0 W/m2 CLR
12:49 21.7 °F 13.3 °F 1028.3 in WNW 11.1 mph 11.1 mph 59 % 0.0 in 605.0 W/m2 CLR
12:54 22.2 °F 13.8 °F 1028.3 in NW 1.9 mph 1.9 mph 59 % 0.0 in 610.0 W/m2 CLR
12:59 22.8 °F 14.3 °F 1028.0 in NNW 9.3 mph 9.3 mph 59 % 0.0 in 613.0 W/m2 CLR
13:04 23.3 °F 14.3 °F 1028.0 in Calm     57 % 0.0 in 615.0 W/m2 CLR
13:09 23.3 °F 14.3 °F 1028.0 in North 7.4 mph 7.4 mph 57 % 0.0 in 619.0 W/m2 CLR
13:14 23.3 °F 14.1 °F 1028.0 in Calm     56 % 0.0 in 622.0 W/m2 CLR
13:19 23.3 °F 14.1 °F 1028.0 in NW 14.5 mph 14.5 mph 56 % 0.0 in 628.0 W/m2 CLR
13:24 23.3 °F 14.1 °F 1027.7 in WNW 7.4 mph 7.4 mph 56 % 0.0 in 628.0 W/m2 CLR
13:29 23.3 °F 14.3 °F 1027.7 in Calm     57 % 0.0 in 633.0 W/m2 CLR
13:34 23.3 °F 14.1 °F 1027.7 in North 8.0 mph 8.0 mph 56 % 0.0 in 635.0 W/m2 CLR
13:39 23.3 °F 14.1 °F 1027.7 in NNW 9.3 mph 9.3 mph 56 % 0.0 in 633.0 W/m2 CLR
13:44 23.9 °F 14.3 °F 1027.3 in North 9.7 mph 9.7 mph 55 % 0.0 in 629.0 W/m2 CLR
13:49 23.9 °F 14.6 °F 1027.3 in Calm     56 % 0.0 in 631.0 W/m2 CLR
13:54 24.4 °F 15.1 °F 1027.3 in West 13.0 mph 13.0 mph 56 % 0.0 in 629.0 W/m2 CLR
13:59 23.9 °F 14.6 °F 1027.3 in WNW 13.0 mph 13.0 mph 56 % 0.0 in 629.0 W/m2 CLR
14:04 24.4 °F 14.8 °F 1027.3 in NNW 3.2 mph 3.2 mph 55 % 0.0 in 631.0 W/m2 CLR
14:09 23.9 °F 14.3 °F 1027.0 in Calm     55 % 0.0 in 629.0 W/m2 CLR
14:10 23.9 °F 14.3 °F 1027.0 in Calm     55 % 0.0 in 629.0 W/m2 CLR
14:15 24.4 °F 14.6 °F 1027.0 in NNW 13.0 mph 13.0 mph 54 % 0.0 in 626.0 W/m2 CLR
14:20 25.0 °F 14.8 °F 1027.0 in NW 13.0 mph 13.0 mph 53 % 0.0 in 626.0 W/m2 CLR
14:25 25.0 °F 14.4 °F 1026.6 in NNW 5.6 mph 5.6 mph 52 % 0.0 in 619.0 W/m2 CLR
14:30 25.0 °F 14.4 °F 1026.6 in NW 9.7 mph 9.7 mph 52 % 0.0 in 617.0 W/m2 CLR
14:35 25.0 °F 14.2 °F 1026.6 in NW 18.5 mph 18.5 mph 51 % 0.0 in 612.0 W/m2 CLR
14:40 25.0 °F 14.2 °F 1026.3 in WNW 11.1 mph 11.1 mph 51 % 0.0 in 610.0 W/m2 CLR
14:45 25.6 °F 14.1 °F 1026.3 in WNW 14.8 mph 14.8 mph 49 % 0.0 in 606.0 W/m2 CLR
14:50 25.6 °F 14.1 °F 1026.3 in NE 17.7 mph 17.7 mph 49 % 0.0 in 601.0 W/m2 CLR
14:55 25.6 °F 14.1 °F 1026.3 in North 7.4 mph 7.4 mph 49 % 0.0 in 598.0 W/m2 CLR
15:00 25.6 °F 13.7 °F 1026.0 in North 7.4 mph 7.4 mph 48 % 0.0 in 596.0 W/m2 CLR
15:05 25.6 °F 13.7 °F 1026.0 in NNE 8.0 mph 8.0 mph 48 % 0.0 in 591.0 W/m2 CLR
15:10 26.1 °F 14.2 °F 1026.0 in North 5.6 mph 5.6 mph 48 % 0.0 in 577.0 W/m2 CLR
15:15 26.1 °F 13.9 °F 1026.0 in North 13.0 mph 13.0 mph 47 % 0.0 in 573.0 W/m2 CLR
15:20 25.6 °F 13.4 °F 1026.0 in North 18.5 mph 18.5 mph 47 % 0.0 in 568.0 W/m2 CLR
15:25 25.6 °F 13.7 °F 1026.0 in NE 14.8 mph 14.8 mph 48 % 0.0 in 559.0 W/m2 CLR
15:30 26.1 °F 14.2 °F 1026.0 in North 16.7 mph 16.7 mph 48 % 0.0 in 548.0 W/m2 CLR
15:35 26.1 °F 13.9 °F 1025.6 in North 16.7 mph 16.7 mph 47 % 0.0 in 536.0 W/m2 CLR
15:40 26.1 °F 14.2 °F 1025.6 in NW 14.8 mph 14.8 mph 48 % 0.0 in 526.0 W/m2 CLR
15:45 25.6 °F 13.4 °F 1025.6 in NNE 11.3 mph 11.3 mph 47 % 0.0 in 517.0 W/m2 CLR
15:50 26.1 °F 13.9 °F 1025.6 in NNE 14.8 mph 14.8 mph 47 % 0.0 in 510.0 W/m2 CLR
15:55 26.1 °F 13.9 °F 1025.6 in NNW 18.5 mph 18.5 mph 47 % 0.0 in 499.0 W/m2 CLR
16:00 26.1 °F 13.9 °F 1025.6 in NNW 16.7 mph 16.7 mph 47 % 0.0 in 490.0 W/m2 CLR
16:05 26.1 °F 14.2 °F 1025.6 in NNW 5.6 mph 5.6 mph 48 % 0.0 in 480.0 W/m2 CLR
16:10 26.1 °F 13.9 °F 1025.3 in NNE 11.1 mph 11.1 mph 47 % 0.0 in 466.0 W/m2 CLR
16:15 26.1 °F 13.9 °F 1025.3 in NE 9.7 mph 9.7 mph 47 % 0.0 in 454.0 W/m2 CLR
16:20 26.1 °F 13.2 °F 1025.3 in NNE 5.6 mph 5.6 mph 45 % 0.0 in 446.0 W/m2 CLR
16:25 26.7 °F 13.4 °F 1025.3 in ENE 9.3 mph 9.3 mph 44 % 0.0 in 432.0 W/m2 CLR
16:30 26.7 °F 13.7 °F 1025.3 in NE 14.5 mph 14.5 mph 45 % 0.0 in 424.0 W/m2 CLR
16:35 26.7 °F 12.3 °F 1025.3 in ENE 14.8 mph 14.8 mph 41 % 0.0 in 415.0 W/m2 CLR
16:40 26.7 °F 11.9 °F 1025.3 in ENE 16.7 mph 16.7 mph 40 % 0.0 in 396.0 W/m2 CLR
16:45 26.1 °F 11.8 °F 1025.3 in NE 13.0 mph 13.0 mph 41 % 0.0 in 385.0 W/m2 CLR
16:50 26.1 °F 11.8 °F 1025.3 in NE 8.0 mph 8.0 mph 41 % 0.0 in 371.0 W/m2 CLR
16:55 26.1 °F 11.8 °F 1025.3 in NNE 5.6 mph 5.6 mph 41 % 0.0 in 357.0 W/m2 CLR
17:00 26.1 °F 11.8 °F 1025.3 in NE 11.1 mph 11.1 mph 41 % 0.0 in 345.0 W/m2 CLR
17:05 26.1 °F 11.4 °F 1025.3 in NE 9.3 mph 9.3 mph 40 % 0.0 in 330.0 W/m2 CLR
17:10 26.1 °F 12.2 °F 1025.3 in NE 11.1 mph 11.1 mph 42 % 0.0 in 318.0 W/m2 CLR
17:15 26.1 °F 12.2 °F 1025.3 in NE 16.7 mph 16.7 mph 42 % 0.0 in 304.0 W/m2 CLR
17:20 25.6 °F 12.1 °F 1025.3 in NE 9.3 mph 9.3 mph 43 % 0.0 in 290.0 W/m2 CLR
17:25 25.6 °F 12.4 °F 1025.3 in NE 18.5 mph 18.5 mph 44 % 0.0 in 274.0 W/m2 CLR
17:26 25.6 °F 12.4 °F 1025.3 in NE 18.5 mph 18.5 mph 44 % 0.0 in 274.0 W/m2 CLR
17:31 25.6 °F 12.4 °F 1025.3 in NE 18.5 mph 18.5 mph 44 % 0.0 in 260.0 W/m2 CLR
17:36 25.6 °F 12.4 °F 1025.3 in ENE 9.3 mph 9.3 mph 44 % 0.0 in 246.0 W/m2 CLR
17:41 25.0 °F 11.9 °F 1024.9 in NE 18.5 mph 18.5 mph 44 % 0.0 in 230.0 W/m2 CLR
17:46 25.0 °F 12.2 °F 1024.9 in ENE 14.8 mph 14.8 mph 45 % 0.0 in 211.0 W/m2 CLR
17:51 24.4 °F 11.7 °F 1024.9 in ENE 16.7 mph 16.7 mph 45 % 0.0 in 195.0 W/m2 CLR
17:56 24.4 °F 12.1 °F 1025.3 in ENE 14.8 mph 14.8 mph 46 % 0.0 in 179.0 W/m2 CLR
18:01 24.4 °F 12.1 °F 1024.9 in ENE 18.5 mph 18.5 mph 46 % 0.0 in 162.0 W/m2 CLR
18:06 23.9 °F 11.9 °F 1024.9 in ENE 18.5 mph 18.5 mph 47 % 0.0 in 146.0 W/m2 CLR
18:11 23.9 °F 11.9 °F 1025.3 in NE 18.5 mph 18.5 mph 47 % 0.0 in 127.0 W/m2 CLR
18:16 23.3 °F 11.7 °F 1025.3 in NE 18.5 mph 18.5 mph 48 % 0.0 in 111.0 W/m2 CLR
18:21 23.3 °F 11.7 °F 1025.3 in ENE 16.7 mph 16.7 mph 48 % 0.0 in 95.0 W/m2 CLR
18:26 23.3 °F 12.0 °F 1025.3 in NE 20.4 mph 20.4 mph 49 % 0.0 in 83.0 W/m2 FEW
18:31 22.8 °F 11.8 °F 1025.3 in ENE 14.8 mph 14.8 mph 50 % 0.0 in 62.0 W/m2 FEW
18:32 22.8 °F 11.8 °F 1025.3 in NE 14.8 mph 14.8 mph 50 % 0.0 in 58.0 W/m2 SCT
18:37 22.8 °F 11.5 °F 1025.3 in NE 18.5 mph 18.5 mph 49 % 0.0 in 49.0 W/m2 SCT
18:42 22.2 °F 11.0 °F 1025.3 in NE 13.0 mph 13.0 mph 49 % 0.0 in 40.0 W/m2 BKN
18:47 22.2 °F 11.3 °F 1025.3 in ENE 9.3 mph 9.3 mph 50 % 0.0 in 30.0 W/m2 BKN
18:52 21.7 °F 11.1 °F 1025.3 in ENE 16.7 mph 16.7 mph 51 % 0.0 in 21.0 W/m2 BKN
18:57 21.1 °F 10.6 °F 1025.3 in ENE 18.5 mph 18.5 mph 51 % 0.0 in 14.0 W/m2 BKN
19:02 20.6 °F 10.3 °F 1025.3 in East 13.0 mph 13.0 mph 52 % 0.0 in 12.0 W/m2 BKN
19:07 20.6 °F 10.3 °F 1025.6 in ENE 13.0 mph 13.0 mph 52 % 0.0 in 11.0 W/m2 BKN
19:12 20.0 °F 10.1 °F 1025.6 in ENE 16.7 mph 16.7 mph 53 % 0.0 in 7.0 W/m2 BKN
19:17 20.0 °F 10.4 °F 1025.6 in ENE 11.3 mph 11.3 mph 54 % 0.0 in 5.0 W/m2 OVC
19:22 20.0 °F 10.7 °F 1025.6 in NE 13.0 mph 13.0 mph 55 % 0.0 in 0.0 W/m2 OVC
19:27 19.4 °F 10.2 °F 1025.6 in Calm     55 % 0.0 in 0.0 W/m2 OVC
19:32 18.9 °F 9.9 °F 1025.6 in NNE 7.4 mph 7.4 mph 56 % 0.0 in 0.0 W/m2 CLR
19:37 18.3 °F 9.7 °F 1025.6 in ENE 5.6 mph 5.6 mph 57 % 0.0 in 0.0 W/m2 CLR
19:42 17.8 °F 9.4 °F 1025.6 in Calm     58 % 0.0 in 0.0 W/m2 CLR
19:47 17.2 °F 9.4 °F 1025.6 in ENE 5.6 mph 5.6 mph 60 % 0.0 in 0.0 W/m2 CLR
19:52 16.7 °F 8.9 °F 1025.6 in NE 5.6 mph 5.6 mph 60 % 0.0 in 0.0 W/m2 CLR
19:57 16.1 °F 8.3 °F 1026.0 in Calm     60 % 0.0 in 0.0 W/m2 CLR
20:02 15.6 °F 8.1 °F 1026.0 in Calm     61 % 0.0 in 0.0 W/m2 CLR
20:07 15.0 °F 7.8 °F 1026.0 in NE 3.7 mph 3.7 mph 62 % 0.0 in 0.0 W/m2 CLR
20:12 15.0 °F 7.8 °F 1026.0 in NE 5.6 mph 5.6 mph 62 % 0.0 in 0.0 W/m2 CLR
20:17 14.4 °F 7.5 °F 1026.0 in NE 5.6 mph 5.6 mph 63 % 0.0 in 0.0 W/m2 CLR
20:22 13.9 °F 6.9 °F 1026.0 in Calm     63 % 0.0 in 0.0 W/m2 CLR
20:27 13.9 °F 7.2 °F 1026.0 in ENE 9.3 mph 9.3 mph 64 % 0.0 in 0.0 W/m2 CLR
20:32 13.9 °F 7.2 °F 1026.0 in Calm     64 % 0.0 in 0.0 W/m2 CLR
20:37 13.3 °F 6.7 °F 1026.0 in Calm     64 % 0.0 in 0.0 W/m2 CLR
20:42 13.3 °F 6.7 °F 1026.0 in Calm     64 % 0.0 in 0.0 W/m2 CLR
20:47 13.3 °F 6.9 °F 1026.0 in NE 7.4 mph 7.4 mph 65 % 0.0 in 0.0 W/m2 CLR
20:52 13.3 °F 6.9 °F 1026.0 in NE 5.6 mph 5.6 mph 65 % 0.0 in 0.0 W/m2 CLR
20:57 13.3 °F 6.9 °F 1026.0 in NE 3.7 mph 3.7 mph 65 % 0.0 in 0.0 W/m2 CLR
21:02 12.8 °F 6.6 °F 1026.0 in NE 7.4 mph 7.4 mph 66 % 0.0 in 0.0 W/m2 CLR
21:07 12.8 °F 6.6 °F 1026.3 in NE 6.4 mph 6.4 mph 66 % 0.0 in 0.0 W/m2 CLR
21:12 12.8 °F 6.8 °F 1026.3 in Calm     67 % 0.0 in 0.0 W/m2 CLR
21:17 12.8 °F 6.8 °F 1026.3 in Calm     67 % 0.0 in 0.0 W/m2 CLR
21:22 12.8 °F 7.0 °F 1026.3 in Calm     68 % 0.0 in 0.0 W/m2 CLR
21:27 12.2 °F 6.5 °F 1026.3 in Calm     68 % 0.0 in 0.0 W/m2 CLR
21:32 12.2 °F 6.7 °F 1026.3 in East 6.4 mph 6.4 mph 69 % 0.0 in 0.0 W/m2 CLR
21:37 11.7 °F 6.2 °F 1026.3 in East 5.6 mph 6.6 mph 69 % 0.0 in 0.0 W/m2 CLR
21:42 11.7 °F 6.2 °F 1026.3 in East 5.6 mph 5.6 mph 69 % 0.0 in 0.0 W/m2 CLR
21:47 11.7 °F 6.2 °F 1026.3 in ENE 13.0 mph 13.0 mph 69 % 0.0 in 0.0 W/m2 CLR
21:52 11.1 °F 5.6 °F 1026.3 in East 3.7 mph   69 % 0.0 in 0.0 W/m2 CLR
21:57 11.1 °F 5.8 °F 1026.3 in Calm     70 % 0.0 in 0.0 W/m2 CLR
22:02 11.1 °F 5.8 °F 1026.3 in Calm     70 % 0.0 in 0.0 W/m2 CLR
22:07 11.1 °F 5.8 °F 1026.3 in Calm     70 % 0.0 in 0.0 W/m2 CLR
22:12 10.6 °F 5.5 °F 1026.3 in ENE 5.6 mph   71 % 0.0 in 0.0 W/m2 CLR
22:17 11.1 °F 6.1 °F 1026.3 in Calm     71 % 0.0 in 0.0 W/m2 CLR
22:22 11.1 °F 6.1 °F 1026.3 in Calm     71 % 0.0 in 0.0 W/m2 CLR
22:27 10.6 °F 5.7 °F 1026.6 in Calm     72 % 0.0 in 0.0 W/m2 CLR
22:32 10.6 °F 5.7 °F 1026.6 in Calm     72 % 0.0 in 0.0 W/m2 CLR
22:37 10.6 °F 5.7 °F 1026.6 in Calm     72 % 0.0 in 0.0 W/m2 CLR
22:42 10.6 °F 5.7 °F 1026.6 in Calm     72 % 0.0 in 0.0 W/m2 CLR
22:47 10.0 °F 5.2 °F 1026.6 in Calm     72 % 0.0 in 0.0 W/m2 CLR
22:52 10.0 °F 5.2 °F 1026.6 in Calm     72 % 0.0 in 0.0 W/m2 CLR
22:58 10.0 °F 5.2 °F 1026.6 in Calm     72 % 0.0 in 0.0 W/m2 CLR
23:03 10.0 °F 5.2 °F 1026.6 in Calm     72 % 0.0 in 0.0 W/m2 CLR
23:08 9.4 °F 4.7 °F 1026.6 in Calm     72 % 0.0 in 0.0 W/m2 CLR
23:13 9.4 °F 4.7 °F 1026.6 in Calm     72 % 0.0 in 0.0 W/m2 CLR
23:18 9.4 °F 4.7 °F 1026.6 in Calm     72 % 0.0 in 0.0 W/m2 CLR
23:23 9.4 °F 4.4 °F 1026.6 in Calm     71 % 0.0 in 0.0 W/m2 CLR
23:28 9.4 °F 5.1 °F 1026.6 in Calm     74 % 0.0 in 0.0 W/m2 CLR
23:33 9.4 °F 5.2 °F 1026.6 in Calm     75 % 0.0 in 0.0 W/m2 CLR
23:38 9.4 °F 5.2 °F 1026.6 in Calm     75 % 0.0 in 0.0 W/m2 CLR
23:43 9.4 °F 5.2 °F 1026.6 in Calm     75 % 0.0 in 0.0 W/m2 CLR
23:48 9.4 °F 5.4 °F 1026.6 in Calm     76 % 0.0 in 0.0 W/m2 CLR
23:53 9.4 °F 5.4 °F 1026.6 in Calm     76 % 0.0 in 0.0 W/m2 CLR
23:58 9.4 °F 5.8 °F 1026.6 in Calm     78 % 0.0 in 0.0 W/m2 CLR
Lo Temps de Massalio
Compliments of Weather Underground - 1.25 mb